sensor_id;sensor_type;location;lat;lon;timestamp;P1;durP1;ratioP1;P2;durP2;ratioP2
19016;SDS011;9641;51.494;6.670;2022-09-02T00:01:17;7.73;;;1.80;;
19016;SDS011;9641;51.494;6.670;2022-09-02T00:03:46;5.93;;;1.77;;
19016;SDS011;9641;51.494;6.670;2022-09-02T00:06:14;4.80;;;1.83;;
19016;SDS011;9641;51.494;6.670;2022-09-02T00:08:42;11.63;;;1.93;;
19016;SDS011;9641;51.494;6.670;2022-09-02T00:11:12;4.10;;;1.93;;
19016;SDS011;9641;51.494;6.670;2022-09-02T00:13:40;3.50;;;1.77;;
19016;SDS011;9641;51.494;6.670;2022-09-02T00:16:09;3.57;;;1.67;;
19016;SDS011;9641;51.494;6.670;2022-09-02T00:18:36;4.67;;;1.30;;
19016;SDS011;9641;51.494;6.670;2022-09-02T00:21:04;5.73;;;1.97;;
19016;SDS011;9641;51.494;6.670;2022-09-02T00:23:31;2.90;;;1.97;;
19016;SDS011;9641;51.494;6.670;2022-09-02T00:25:59;2.93;;;1.70;;
19016;SDS011;9641;51.494;6.670;2022-09-02T00:28:26;2.03;;;1.60;;
19016;SDS011;9641;51.494;6.670;2022-09-02T00:30:53;3.83;;;2.13;;
19016;SDS011;9641;51.494;6.670;2022-09-02T00:33:21;3.60;;;1.53;;
19016;SDS011;9641;51.494;6.670;2022-09-02T00:35:48;7.53;;;1.90;;
19016;SDS011;9641;51.494;6.670;2022-09-02T00:38:16;6.30;;;1.90;;
19016;SDS011;9641;51.494;6.670;2022-09-02T00:40:44;2.53;;;1.60;;
19016;SDS011;9641;51.494;6.670;2022-09-02T00:43:20;3.13;;;2.07;;
19016;SDS011;9641;51.494;6.670;2022-09-02T00:45:48;6.33;;;1.90;;
19016;SDS011;9641;51.494;6.670;2022-09-02T00:48:18;6.93;;;2.10;;
19016;SDS011;9641;51.494;6.670;2022-09-02T00:50:47;9.80;;;2.03;;
19016;SDS011;9641;51.494;6.670;2022-09-02T00:53:15;6.77;;;2.30;;
19016;SDS011;9641;51.494;6.670;2022-09-02T00:55:44;2.10;;;1.53;;
19016;SDS011;9641;51.494;6.670;2022-09-02T00:58:14;4.30;;;2.00;;
19016;SDS011;9641;51.494;6.670;2022-09-02T01:00:45;4.53;;;1.90;;
19016;SDS011;9641;51.494;6.670;2022-09-02T01:03:18;8.07;;;2.00;;
19016;SDS011;9641;51.494;6.670;2022-09-02T01:05:49;4.53;;;1.57;;
19016;SDS011;9641;51.494;6.670;2022-09-02T01:08:18;4.93;;;1.77;;
19016;SDS011;9641;51.494;6.670;2022-09-02T01:10:49;4.47;;;1.83;;
19016;SDS011;9641;51.494;6.670;2022-09-02T01:13:18;4.17;;;1.80;;
19016;SDS011;9641;51.494;6.670;2022-09-02T01:15:47;5.33;;;2.00;;
19016;SDS011;9641;51.494;6.670;2022-09-02T01:18:17;8.50;;;1.90;;
19016;SDS011;9641;51.494;6.670;2022-09-02T01:20:46;3.80;;;2.13;;
19016;SDS011;9641;51.494;6.670;2022-09-02T01:23:15;5.77;;;2.40;;
19016;SDS011;9641;51.494;6.670;2022-09-02T01:25:43;5.73;;;2.13;;
19016;SDS011;9641;51.494;6.670;2022-09-02T01:28:11;2.70;;;1.73;;
19016;SDS011;9641;51.494;6.670;2022-09-02T01:30:41;2.60;;;1.70;;
19016;SDS011;9641;51.494;6.670;2022-09-02T01:33:10;3.87;;;1.93;;
19016;SDS011;9641;51.494;6.670;2022-09-02T01:35:37;5.13;;;2.30;;
19016;SDS011;9641;51.494;6.670;2022-09-02T01:38:04;7.30;;;2.20;;
19016;SDS011;9641;51.494;6.670;2022-09-02T01:40:33;3.00;;;1.73;;
19016;SDS011;9641;51.494;6.670;2022-09-02T01:43:02;3.40;;;1.93;;
19016;SDS011;9641;51.494;6.670;2022-09-02T01:45:32;6.00;;;1.83;;
19016;SDS011;9641;51.494;6.670;2022-09-02T01:47:59;9.57;;;2.23;;
19016;SDS011;9641;51.494;6.670;2022-09-02T01:50:27;8.20;;;2.40;;
19016;SDS011;9641;51.494;6.670;2022-09-02T01:52:56;7.37;;;2.23;;
19016;SDS011;9641;51.494;6.670;2022-09-02T01:55:23;5.03;;;2.00;;
19016;SDS011;9641;51.494;6.670;2022-09-02T01:57:52;3.70;;;1.70;;
19016;SDS011;9641;51.494;6.670;2022-09-02T02:00:19;4.23;;;1.80;;
19016;SDS011;9641;51.494;6.670;2022-09-02T02:02:47;9.87;;;1.87;;
19016;SDS011;9641;51.494;6.670;2022-09-02T02:05:15;2.03;;;1.83;;
19016;SDS011;9641;51.494;6.670;2022-09-02T02:07:45;7.33;;;2.40;;
19016;SDS011;9641;51.494;6.670;2022-09-02T02:10:13;5.67;;;2.10;;
19016;SDS011;9641;51.494;6.670;2022-09-02T02:12:43;5.50;;;1.97;;
19016;SDS011;9641;51.494;6.670;2022-09-02T02:15:13;6.07;;;2.03;;
19016;SDS011;9641;51.494;6.670;2022-09-02T02:17:42;3.30;;;1.90;;
19016;SDS011;9641;51.494;6.670;2022-09-02T02:20:10;6.83;;;1.90;;
19016;SDS011;9641;51.494;6.670;2022-09-02T02:22:40;4.70;;;1.87;;
19016;SDS011;9641;51.494;6.670;2022-09-02T02:25:07;3.73;;;1.77;;
19016;SDS011;9641;51.494;6.670;2022-09-02T02:27:35;2.40;;;1.60;;
19016;SDS011;9641;51.494;6.670;2022-09-02T02:30:05;4.10;;;1.87;;
19016;SDS011;9641;51.494;6.670;2022-09-02T02:32:35;5.30;;;1.77;;
19016;SDS011;9641;51.494;6.670;2022-09-02T02:35:02;10.30;;;1.90;;
19016;SDS011;9641;51.494;6.670;2022-09-02T02:37:32;5.60;;;2.20;;
19016;SDS011;9641;51.494;6.670;2022-09-02T02:39:59;2.47;;;1.90;;
19016;SDS011;9641;51.494;6.670;2022-09-02T02:42:27;4.27;;;1.93;;
19016;SDS011;9641;51.494;6.670;2022-09-02T02:44:55;5.50;;;2.07;;
19016;SDS011;9641;51.494;6.670;2022-09-02T02:47:22;6.63;;;2.40;;
19016;SDS011;9641;51.494;6.670;2022-09-02T02:49:50;6.57;;;2.10;;
19016;SDS011;9641;51.494;6.670;2022-09-02T02:52:17;6.30;;;1.93;;
19016;SDS011;9641;51.494;6.670;2022-09-02T02:54:45;2.93;;;1.90;;
19016;SDS011;9641;51.494;6.670;2022-09-02T02:57:12;3.40;;;1.80;;
19016;SDS011;9641;51.494;6.670;2022-09-02T02:59:39;3.10;;;1.60;;
19016;SDS011;9641;51.494;6.670;2022-09-02T03:02:09;7.10;;;2.10;;
19016;SDS011;9641;51.494;6.670;2022-09-02T03:04:36;5.83;;;2.30;;
19016;SDS011;9641;51.494;6.670;2022-09-02T03:07:05;5.90;;;2.30;;
19016;SDS011;9641;51.494;6.670;2022-09-02T03:09:33;4.13;;;2.30;;
19016;SDS011;9641;51.494;6.670;2022-09-02T03:12:01;3.87;;;2.47;;
19016;SDS011;9641;51.494;6.670;2022-09-02T03:14:29;4.07;;;2.10;;
19016;SDS011;9641;51.494;6.670;2022-09-02T03:16:57;10.63;;;2.63;;
19016;SDS011;9641;51.494;6.670;2022-09-02T03:19:24;5.07;;;2.00;;
19016;SDS011;9641;51.494;6.670;2022-09-02T03:21:51;5.57;;;2.30;;
19016;SDS011;9641;51.494;6.670;2022-09-02T03:24:20;5.40;;;2.70;;
19016;SDS011;9641;51.494;6.670;2022-09-02T03:26:47;6.17;;;2.50;;
19016;SDS011;9641;51.494;6.670;2022-09-02T03:29:16;4.23;;;2.40;;
19016;SDS011;9641;51.494;6.670;2022-09-02T03:31:43;6.83;;;1.90;;
19016;SDS011;9641;51.494;6.670;2022-09-02T03:34:10;3.60;;;1.93;;
19016;SDS011;9641;51.494;6.670;2022-09-02T03:36:38;6.27;;;2.10;;
19016;SDS011;9641;51.494;6.670;2022-09-02T03:39:09;5.87;;;2.30;;
19016;SDS011;9641;51.494;6.670;2022-09-02T03:41:41;4.63;;;2.00;;
19016;SDS011;9641;51.494;6.670;2022-09-02T03:44:09;5.67;;;2.27;;
19016;SDS011;9641;51.494;6.670;2022-09-02T03:46:37;5.47;;;2.00;;
19016;SDS011;9641;51.494;6.670;2022-09-02T03:49:05;6.67;;;1.73;;
19016;SDS011;9641;51.494;6.670;2022-09-02T03:51:34;4.73;;;2.07;;
19016;SDS011;9641;51.494;6.670;2022-09-02T03:54:06;7.33;;;2.37;;
19016;SDS011;9641;51.494;6.670;2022-09-02T03:56:34;6.00;;;2.13;;
19016;SDS011;9641;51.494;6.670;2022-09-02T03:59:03;6.63;;;2.10;;
19016;SDS011;9641;51.494;6.670;2022-09-02T04:01:30;4.20;;;2.10;;
19016;SDS011;9641;51.494;6.670;2022-09-02T04:03:57;3.60;;;2.10;;
19016;SDS011;9641;51.494;6.670;2022-09-02T04:06:25;3.90;;;2.10;;
19016;SDS011;9641;51.494;6.670;2022-09-02T04:08:54;5.47;;;2.23;;
19016;SDS011;9641;51.494;6.670;2022-09-02T04:11:21;4.13;;;1.93;;
19016;SDS011;9641;51.494;6.670;2022-09-02T04:13:51;3.17;;;1.73;;
19016;SDS011;9641;51.494;6.670;2022-09-02T04:16:24;4.57;;;2.07;;
19016;SDS011;9641;51.494;6.670;2022-09-02T04:18:54;4.93;;;1.87;;
19016;SDS011;9641;51.494;6.670;2022-09-02T04:21:22;3.73;;;1.90;;
19016;SDS011;9641;51.494;6.670;2022-09-02T04:23:49;2.13;;;1.53;;
19016;SDS011;9641;51.494;6.670;2022-09-02T04:26:19;6.10;;;1.93;;
19016;SDS011;9641;51.494;6.670;2022-09-02T04:28:51;3.97;;;1.83;;
19016;SDS011;9641;51.494;6.670;2022-09-02T04:31:21;2.40;;;2.10;;
19016;SDS011;9641;51.494;6.670;2022-09-02T04:33:51;5.93;;;2.10;;
19016;SDS011;9641;51.494;6.670;2022-09-02T04:36:19;3.90;;;2.20;;
19016;SDS011;9641;51.494;6.670;2022-09-02T04:38:49;5.43;;;2.63;;
19016;SDS011;9641;51.494;6.670;2022-09-02T04:41:18;6.83;;;2.70;;
19016;SDS011;9641;51.494;6.670;2022-09-02T04:43:47;5.83;;;2.27;;
19016;SDS011;9641;51.494;6.670;2022-09-02T04:46:15;6.00;;;2.13;;
19016;SDS011;9641;51.494;6.670;2022-09-02T04:48:43;5.73;;;2.13;;
19016;SDS011;9641;51.494;6.670;2022-09-02T04:51:14;7.20;;;1.90;;
19016;SDS011;9641;51.494;6.670;2022-09-02T04:53:44;4.60;;;1.87;;
19016;SDS011;9641;51.494;6.670;2022-09-02T04:56:14;3.20;;;1.87;;
19016;SDS011;9641;51.494;6.670;2022-09-02T04:58:46;5.23;;;2.40;;
19016;SDS011;9641;51.494;6.670;2022-09-02T05:01:17;5.43;;;2.20;;
19016;SDS011;9641;51.494;6.670;2022-09-02T05:03:46;9.23;;;2.43;;
19016;SDS011;9641;51.494;6.670;2022-09-02T05:06:17;11.37;;;3.00;;
19016;SDS011;9641;51.494;6.670;2022-09-02T05:08:45;4.30;;;2.50;;
19016;SDS011;9641;51.494;6.670;2022-09-02T05:11:13;5.07;;;2.30;;
19016;SDS011;9641;51.494;6.670;2022-09-02T05:13:43;10.23;;;2.70;;
19016;SDS011;9641;51.494;6.670;2022-09-02T05:16:14;5.83;;;2.90;;
19016;SDS011;9641;51.494;6.670;2022-09-02T05:18:42;8.70;;;3.27;;
19016;SDS011;9641;51.494;6.670;2022-09-02T05:21:11;12.13;;;3.07;;
19016;SDS011;9641;51.494;6.670;2022-09-02T05:23:40;9.30;;;3.00;;
19016;SDS011;9641;51.494;6.670;2022-09-02T05:26:07;8.83;;;3.03;;
19016;SDS011;9641;51.494;6.670;2022-09-02T05:28:36;10.10;;;2.70;;
19016;SDS011;9641;51.494;6.670;2022-09-02T05:31:06;7.47;;;3.03;;
19016;SDS011;9641;51.494;6.670;2022-09-02T05:33:36;6.83;;;2.53;;
19016;SDS011;9641;51.494;6.670;2022-09-02T05:36:06;7.80;;;2.60;;
19016;SDS011;9641;51.494;6.670;2022-09-02T05:38:36;6.47;;;2.70;;
19016;SDS011;9641;51.494;6.670;2022-09-02T05:41:05;7.10;;;2.83;;
19016;SDS011;9641;51.494;6.670;2022-09-02T05:43:34;8.67;;;2.60;;
19016;SDS011;9641;51.494;6.670;2022-09-02T05:46:02;7.27;;;2.70;;
19016;SDS011;9641;51.494;6.670;2022-09-02T05:48:33;5.23;;;2.90;;
19016;SDS011;9641;51.494;6.670;2022-09-02T05:51:19;5.93;;;2.80;;
19016;SDS011;9641;51.494;6.670;2022-09-02T05:53:47;6.80;;;2.47;;
19016;SDS011;9641;51.494;6.670;2022-09-02T05:56:19;10.10;;;2.90;;
19016;SDS011;9641;51.494;6.670;2022-09-02T05:58:46;7.87;;;2.57;;
19016;SDS011;9641;51.494;6.670;2022-09-02T06:01:14;7.20;;;3.30;;
19016;SDS011;9641;51.494;6.670;2022-09-02T06:03:43;4.63;;;2.20;;
19016;SDS011;9641;51.494;6.670;2022-09-02T06:06:11;4.07;;;2.10;;
19016;SDS011;9641;51.494;6.670;2022-09-02T06:08:39;3.67;;;2.00;;
19016;SDS011;9641;51.494;6.670;2022-09-02T06:11:08;5.53;;;2.53;;
19016;SDS011;9641;51.494;6.670;2022-09-02T06:13:39;6.20;;;2.40;;
19016;SDS011;9641;51.494;6.670;2022-09-02T06:16:07;9.83;;;2.37;;
19016;SDS011;9641;51.494;6.670;2022-09-02T06:18:40;4.37;;;2.30;;
19016;SDS011;9641;51.494;6.670;2022-09-02T06:21:09;7.17;;;2.67;;
19016;SDS011;9641;51.494;6.670;2022-09-02T06:23:40;5.40;;;2.20;;
19016;SDS011;9641;51.494;6.670;2022-09-02T06:26:10;8.53;;;2.40;;
19016;SDS011;9641;51.494;6.670;2022-09-02T06:28:40;5.13;;;2.20;;
19016;SDS011;9641;51.494;6.670;2022-09-02T06:31:09;7.00;;;2.30;;
19016;SDS011;9641;51.494;6.670;2022-09-02T06:33:39;8.83;;;3.10;;
19016;SDS011;9641;51.494;6.670;2022-09-02T06:36:07;8.73;;;2.60;;
19016;SDS011;9641;51.494;6.670;2022-09-02T06:38:36;10.27;;;2.10;;
19016;SDS011;9641;51.494;6.670;2022-09-02T06:41:05;5.10;;;2.30;;
19016;SDS011;9641;51.494;6.670;2022-09-02T06:43:40;5.30;;;2.60;;
19016;SDS011;9641;51.494;6.670;2022-09-02T06:46:14;8.73;;;2.67;;
19016;SDS011;9641;51.494;6.670;2022-09-02T06:48:43;7.73;;;2.67;;
19016;SDS011;9641;51.494;6.670;2022-09-02T06:51:14;6.33;;;2.33;;
19016;SDS011;9641;51.494;6.670;2022-09-02T06:53:43;5.90;;;2.77;;
19016;SDS011;9641;51.494;6.670;2022-09-02T06:56:11;8.33;;;2.60;;
19016;SDS011;9641;51.494;6.670;2022-09-02T06:58:38;5.67;;;2.50;;
19016;SDS011;9641;51.494;6.670;2022-09-02T07:01:08;2.90;;;2.13;;
19016;SDS011;9641;51.494;6.670;2022-09-02T07:03:37;9.37;;;1.90;;
19016;SDS011;9641;51.494;6.670;2022-09-02T07:06:21;5.97;;;1.73;;
19016;SDS011;9641;51.494;6.670;2022-09-02T07:08:50;5.33;;;1.73;;
19016;SDS011;9641;51.494;6.670;2022-09-02T07:11:18;4.90;;;1.90;;
19016;SDS011;9641;51.494;6.670;2022-09-02T07:13:51;11.00;;;2.50;;
19016;SDS011;9641;51.494;6.670;2022-09-02T07:16:18;5.50;;;3.03;;
19016;SDS011;9641;51.494;6.670;2022-09-02T07:18:47;8.13;;;3.10;;
19016;SDS011;9641;51.494;6.670;2022-09-02T07:21:14;12.80;;;3.07;;
19016;SDS011;9641;51.494;6.670;2022-09-02T07:23:41;8.37;;;3.00;;
19016;SDS011;9641;51.494;6.670;2022-09-02T07:26:10;7.77;;;3.47;;
19016;SDS011;9641;51.494;6.670;2022-09-02T07:28:38;12.00;;;3.60;;
19016;SDS011;9641;51.494;6.670;2022-09-02T07:31:10;9.30;;;2.97;;
19016;SDS011;9641;51.494;6.670;2022-09-02T07:33:40;10.33;;;3.57;;
19016;SDS011;9641;51.494;6.670;2022-09-02T07:36:09;5.40;;;2.93;;
19016;SDS011;9641;51.494;6.670;2022-09-02T07:38:38;6.63;;;2.90;;
19016;SDS011;9641;51.494;6.670;2022-09-02T07:41:07;10.63;;;2.97;;
19016;SDS011;9641;51.494;6.670;2022-09-02T07:43:36;7.20;;;3.00;;
19016;SDS011;9641;51.494;6.670;2022-09-02T07:46:06;5.70;;;2.40;;
19016;SDS011;9641;51.494;6.670;2022-09-02T07:48:34;4.33;;;2.07;;
19016;SDS011;9641;51.494;6.670;2022-09-02T07:51:02;11.30;;;2.87;;
19016;SDS011;9641;51.494;6.670;2022-09-02T07:53:31;11.07;;;2.60;;
19016;SDS011;9641;51.494;6.670;2022-09-02T07:55:58;5.80;;;2.20;;
19016;SDS011;9641;51.494;6.670;2022-09-02T07:58:27;10.73;;;2.37;;
19016;SDS011;9641;51.494;6.670;2022-09-02T08:00:55;6.57;;;2.47;;
19016;SDS011;9641;51.494;6.670;2022-09-02T08:03:23;5.97;;;2.43;;
19016;SDS011;9641;51.494;6.670;2022-09-02T08:05:55;5.60;;;2.00;;
19016;SDS011;9641;51.494;6.670;2022-09-02T08:08:22;5.28;;;2.03;;
19016;SDS011;9641;51.494;6.670;2022-09-02T08:10:52;3.78;;;2.20;;
19016;SDS011;9641;51.494;6.670;2022-09-02T08:13:20;5.93;;;2.42;;
19016;SDS011;9641;51.494;6.670;2022-09-02T08:15:48;8.88;;;2.40;;
19016;SDS011;9641;51.494;6.670;2022-09-02T08:18:15;4.18;;;2.10;;
19016;SDS011;9641;51.494;6.670;2022-09-02T08:20:42;8.30;;;3.10;;
19016;SDS011;9641;51.494;6.670;2022-09-02T08:23:11;6.82;;;2.67;;
19016;SDS011;9641;51.494;6.670;2022-09-02T08:25:39;7.03;;;2.53;;
19016;SDS011;9641;51.494;6.670;2022-09-02T08:28:06;6.78;;;2.72;;
19016;SDS011;9641;51.494;6.670;2022-09-02T08:30:34;5.57;;;2.40;;
19016;SDS011;9641;51.494;6.670;2022-09-02T08:33:01;4.50;;;2.43;;
19016;SDS011;9641;51.494;6.670;2022-09-02T08:35:27;7.32;;;2.83;;
19016;SDS011;9641;51.494;6.670;2022-09-02T08:37:56;5.95;;;2.78;;
19016;SDS011;9641;51.494;6.670;2022-09-02T08:40:27;9.27;;;3.10;;
19016;SDS011;9641;51.494;6.670;2022-09-02T08:42:58;7.60;;;4.10;;
19016;SDS011;9641;51.494;6.670;2022-09-02T08:45:29;12.52;;;3.85;;
19016;SDS011;9641;51.494;6.670;2022-09-02T08:48:03;15.52;;;3.42;;
19016;SDS011;9641;51.494;6.670;2022-09-02T08:50:36;9.00;;;3.42;;
19016;SDS011;9641;51.494;6.670;2022-09-02T08:53:06;5.03;;;2.78;;
19016;SDS011;9641;51.494;6.670;2022-09-02T08:55:43;8.90;;;2.97;;
19016;SDS011;9641;51.494;6.670;2022-09-02T08:58:15;5.83;;;2.40;;
19016;SDS011;9641;51.494;6.670;2022-09-02T09:00:44;5.13;;;2.63;;
19016;SDS011;9641;51.494;6.670;2022-09-02T09:03:22;7.53;;;2.83;;
19016;SDS011;9641;51.494;6.670;2022-09-02T09:05:56;8.43;;;3.00;;
19016;SDS011;9641;51.494;6.670;2022-09-02T09:08:31;10.32;;;2.00;;
19016;SDS011;9641;51.494;6.670;2022-09-02T09:11:07;7.82;;;2.05;;
19016;SDS011;9641;51.494;6.670;2022-09-02T09:13:54;3.15;;;2.22;;
19016;SDS011;9641;51.494;6.670;2022-09-02T09:16:37;13.02;;;2.50;;
19016;SDS011;9641;51.494;6.670;2022-09-02T09:19:08;13.48;;;3.63;;
19016;SDS011;9641;51.494;6.670;2022-09-02T09:21:37;4.22;;;1.95;;
19016;SDS011;9641;51.494;6.670;2022-09-02T09:24:13;6.57;;;2.20;;
19016;SDS011;9641;51.494;6.670;2022-09-02T09:26:47;6.53;;;2.00;;
19016;SDS011;9641;51.494;6.670;2022-09-02T09:29:14;5.22;;;2.20;;
19016;SDS011;9641;51.494;6.670;2022-09-02T09:31:42;9.65;;;2.20;;
19016;SDS011;9641;51.494;6.670;2022-09-02T09:34:18;5.22;;;1.90;;
19016;SDS011;9641;51.494;6.670;2022-09-02T09:36:47;3.72;;;2.35;;
19016;SDS011;9641;51.494;6.670;2022-09-02T09:39:27;3.17;;;1.88;;
19016;SDS011;9641;51.494;6.670;2022-09-02T09:41:57;4.63;;;2.00;;
19016;SDS011;9641;51.494;6.670;2022-09-02T09:44:35;4.03;;;2.17;;
19016;SDS011;9641;51.494;6.670;2022-09-02T09:47:09;9.57;;;3.28;;
19016;SDS011;9641;51.494;6.670;2022-09-02T09:49:41;7.30;;;2.72;;
19016;SDS011;9641;51.494;6.670;2022-09-02T09:52:07;6.63;;;2.30;;
19016;SDS011;9641;51.494;6.670;2022-09-02T09:54:34;6.70;;;1.88;;
19016;SDS011;9641;51.494;6.670;2022-09-02T09:57:19;4.07;;;1.75;;
19016;SDS011;9641;51.494;6.670;2022-09-02T09:59:48;3.65;;;1.83;;
19016;SDS011;9641;51.494;6.670;2022-09-02T10:02:20;2.60;;;1.73;;
19016;SDS011;9641;51.494;6.670;2022-09-02T10:04:49;6.03;;;1.80;;
19016;SDS011;9641;51.494;6.670;2022-09-02T10:10:07;2.08;;;1.40;;
19016;SDS011;9641;51.494;6.670;2022-09-02T10:12:41;3.17;;;1.95;;
19016;SDS011;9641;51.494;6.670;2022-09-02T10:15:09;4.45;;;2.00;;
19016;SDS011;9641;51.494;6.670;2022-09-02T10:17:37;3.55;;;1.80;;
19016;SDS011;9641;51.494;6.670;2022-09-02T10:20:14;1.60;;;1.50;;
19016;SDS011;9641;51.494;6.670;2022-09-02T10:22:50;2.50;;;1.33;;
19016;SDS011;9641;51.494;6.670;2022-09-02T10:25:31;1.60;;;1.45;;
19016;SDS011;9641;51.494;6.670;2022-09-02T10:28:09;1.48;;;1.33;;
19016;SDS011;9641;51.494;6.670;2022-09-02T10:30:49;3.63;;;1.20;;
19016;SDS011;9641;51.494;6.670;2022-09-02T10:33:22;1.10;;;1.00;;
19016;SDS011;9641;51.494;6.670;2022-09-02T10:35:58;2.83;;;1.17;;
19016;SDS011;9641;51.494;6.670;2022-09-02T10:38:35;1.52;;;1.25;;
19016;SDS011;9641;51.494;6.670;2022-09-02T10:41:15;1.65;;;1.13;;
19016;SDS011;9641;51.494;6.670;2022-09-02T10:44:06;4.65;;;2.15;;
19016;SDS011;9641;51.494;6.670;2022-09-02T10:46:49;2.33;;;1.42;;
19016;SDS011;9641;51.494;6.670;2022-09-02T10:49:26;1.63;;;1.50;;
19016;SDS011;9641;51.494;6.670;2022-09-02T10:52:06;3.80;;;1.40;;
19016;SDS011;9641;51.494;6.670;2022-09-02T10:54:43;4.82;;;1.90;;
19016;SDS011;9641;51.494;6.670;2022-09-02T10:57:19;4.07;;;2.17;;
19016;SDS011;9641;51.494;6.670;2022-09-02T10:59:56;4.30;;;1.92;;
19016;SDS011;9641;51.494;6.670;2022-09-02T11:02:29;3.60;;;1.80;;
19016;SDS011;9641;51.494;6.670;2022-09-02T11:05:01;2.92;;;1.60;;
19016;SDS011;9641;51.494;6.670;2022-09-02T11:07:34;1.25;;;1.10;;
19016;SDS011;9641;51.494;6.670;2022-09-02T11:10:07;1.33;;;1.23;;
19016;SDS011;9641;51.494;6.670;2022-09-02T11:12:38;2.83;;;1.10;;
19016;SDS011;9641;51.494;6.670;2022-09-02T11:15:14;3.75;;;1.02;;
19016;SDS011;9641;51.494;6.670;2022-09-02T11:17:52;1.85;;;1.13;;
19016;SDS011;9641;51.494;6.670;2022-09-02T11:20:32;4.00;;;1.10;;
19016;SDS011;9641;51.494;6.670;2022-09-02T11:23:14;3.55;;;1.20;;
19016;SDS011;9641;51.494;6.670;2022-09-02T11:25:52;2.72;;;1.40;;
19016;SDS011;9641;51.494;6.670;2022-09-02T11:28:28;3.67;;;1.63;;
19016;SDS011;9641;51.494;6.670;2022-09-02T11:31:04;2.03;;;1.35;;
19016;SDS011;9641;51.494;6.670;2022-09-02T11:33:38;1.85;;;1.30;;
19016;SDS011;9641;51.494;6.670;2022-09-02T11:36:26;3.20;;;1.70;;
19016;SDS011;9641;51.494;6.670;2022-09-02T11:38:54;1.40;;;1.20;;
19016;SDS011;9641;51.494;6.670;2022-09-02T11:41:30;4.38;;;1.90;;
19016;SDS011;9641;51.494;6.670;2022-09-02T11:44:18;2.17;;;1.70;;
19016;SDS011;9641;51.494;6.670;2022-09-02T11:47:19;3.53;;;1.75;;
19016;SDS011;9641;51.494;6.670;2022-09-02T11:50:22;1.95;;;1.40;;
19016;SDS011;9641;51.494;6.670;2022-09-02T11:53:15;1.65;;;1.20;;
19016;SDS011;9641;51.494;6.670;2022-09-02T11:55:48;5.30;;;1.70;;
19016;SDS011;9641;51.494;6.670;2022-09-02T11:58:31;4.50;;;1.50;;
19016;SDS011;9641;51.494;6.670;2022-09-02T12:01:04;4.50;;;1.50;;
19016;SDS011;9641;51.494;6.670;2022-09-02T12:03:47;4.80;;;1.60;;
19016;SDS011;9641;51.494;6.670;2022-09-02T12:06:19;2.35;;;1.33;;
19016;SDS011;9641;51.494;6.670;2022-09-02T12:08:57;2.03;;;1.20;;
19016;SDS011;9641;51.494;6.670;2022-09-02T12:11:42;2.83;;;1.17;;
19016;SDS011;9641;51.494;6.670;2022-09-02T12:17:34;1.23;;;1.13;;
19016;SDS011;9641;51.494;6.670;2022-09-02T12:29:33;1.52;;;0.90;;
19016;SDS011;9641;51.494;6.670;2022-09-02T12:32:01;1.20;;;1.10;;
19016;SDS011;9641;51.494;6.670;2022-09-02T12:34:50;1.90;;;1.45;;
19016;SDS011;9641;51.494;6.670;2022-09-02T12:40:23;6.55;;;1.30;;
19016;SDS011;9641;51.494;6.670;2022-09-02T12:42:57;1.20;;;1.10;;
19016;SDS011;9641;51.494;6.670;2022-09-02T12:45:26;0.82;;;0.80;;
19016;SDS011;9641;51.494;6.670;2022-09-02T12:47:57;1.13;;;0.95;;
19016;SDS011;9641;51.494;6.670;2022-09-02T12:50:28;1.30;;;0.75;;
19016;SDS011;9641;51.494;6.670;2022-09-02T12:53:06;0.70;;;0.70;;
19016;SDS011;9641;51.494;6.670;2022-09-02T12:55:41;3.13;;;0.88;;
19016;SDS011;9641;51.494;6.670;2022-09-02T12:58:21;1.58;;;1.40;;
19016;SDS011;9641;51.494;6.670;2022-09-02T13:00:53;0.80;;;0.80;;
19016;SDS011;9641;51.494;6.670;2022-09-02T13:03:34;2.13;;;1.05;;
19016;SDS011;9641;51.494;6.670;2022-09-02T13:06:33;0.63;;;0.63;;
19016;SDS011;9641;51.494;6.670;2022-09-02T13:12:18;1.63;;;1.30;;
19016;SDS011;9641;51.494;6.670;2022-09-02T13:15:00;4.65;;;2.78;;
19016;SDS011;9641;51.494;6.670;2022-09-02T13:17:59;3.60;;;1.70;;
19016;SDS011;9641;51.494;6.670;2022-09-02T13:20:50;2.58;;;1.38;;
19016;SDS011;9641;51.494;6.670;2022-09-02T13:26:44;1.20;;;1.10;;
19016;SDS011;9641;51.494;6.670;2022-09-02T13:29:58;0.80;;;0.80;;
19016;SDS011;9641;51.494;6.670;2022-09-02T13:32:31;1.30;;;1.17;;
19016;SDS011;9641;51.494;6.670;2022-09-02T13:35:00;2.13;;;1.13;;
19016;SDS011;9641;51.494;6.670;2022-09-02T13:37:31;2.22;;;0.73;;
19016;SDS011;9641;51.494;6.670;2022-09-02T13:40:00;3.35;;;0.90;;
19016;SDS011;9641;51.494;6.670;2022-09-02T13:42:30;0.60;;;0.60;;
19016;SDS011;9641;51.494;6.670;2022-09-02T13:45:12;1.50;;;0.80;;
19016;SDS011;9641;51.494;6.670;2022-09-02T13:47:41;1.65;;;0.95;;
19016;SDS011;9641;51.494;6.670;2022-09-02T13:50:11;1.40;;;0.80;;
19016;SDS011;9641;51.494;6.670;2022-09-02T13:52:40;1.35;;;0.63;;
19016;SDS011;9641;51.494;6.670;2022-09-02T13:55:10;0.90;;;0.90;;
19016;SDS011;9641;51.494;6.670;2022-09-02T13:57:42;1.20;;;0.95;;
19016;SDS011;9641;51.494;6.670;2022-09-02T14:00:14;1.27;;;0.98;;
19016;SDS011;9641;51.494;6.670;2022-09-02T14:02:55;1.10;;;0.65;;
19016;SDS011;9641;51.494;6.670;2022-09-02T14:05:24;0.63;;;0.63;;
19016;SDS011;9641;51.494;6.670;2022-09-02T14:07:54;0.73;;;0.73;;
19016;SDS011;9641;51.494;6.670;2022-09-02T14:10:24;0.55;;;0.50;;
19016;SDS011;9641;51.494;6.670;2022-09-02T14:12:53;0.70;;;0.70;;
19016;SDS011;9641;51.494;6.670;2022-09-02T14:15:24;0.70;;;0.70;;
19016;SDS011;9641;51.494;6.670;2022-09-02T14:18:08;3.10;;;0.90;;
19016;SDS011;9641;51.494;6.670;2022-09-02T14:20:39;0.73;;;0.70;;
19016;SDS011;9641;51.494;6.670;2022-09-02T14:23:17;0.65;;;0.65;;
19016;SDS011;9641;51.494;6.670;2022-09-02T14:25:48;0.70;;;0.70;;
19016;SDS011;9641;51.494;6.670;2022-09-02T14:28:18;1.45;;;1.02;;
19016;SDS011;9641;51.494;6.670;2022-09-02T14:30:55;1.02;;;0.90;;
19016;SDS011;9641;51.494;6.670;2022-09-02T14:33:37;0.82;;;0.73;;
19016;SDS011;9641;51.494;6.670;2022-09-02T14:36:06;2.60;;;0.70;;
19016;SDS011;9641;51.494;6.670;2022-09-02T14:38:48;0.80;;;0.80;;
19016;SDS011;9641;51.494;6.670;2022-09-02T14:41:18;0.95;;;0.80;;
19016;SDS011;9641;51.494;6.670;2022-09-02T14:43:48;1.23;;;0.77;;
19016;SDS011;9641;51.494;6.670;2022-09-02T14:46:26;3.05;;;1.20;;
19016;SDS011;9641;51.494;6.670;2022-09-02T14:48:56;12.05;;;3.83;;
19016;SDS011;9641;51.494;6.670;2022-09-02T14:51:30;2.22;;;1.33;;
19016;SDS011;9641;51.494;6.670;2022-09-02T14:54:01;2.92;;;1.00;;
19016;SDS011;9641;51.494;6.670;2022-09-02T14:56:43;3.63;;;1.15;;
19016;SDS011;9641;51.494;6.670;2022-09-02T14:59:12;2.00;;;1.05;;
19016;SDS011;9641;51.494;6.670;2022-09-02T15:01:40;2.58;;;0.90;;
19016;SDS011;9641;51.494;6.670;2022-09-02T15:04:11;1.70;;;1.00;;
19016;SDS011;9641;51.494;6.670;2022-09-02T15:06:39;2.75;;;1.00;;
19016;SDS011;9641;51.494;6.670;2022-09-02T15:09:06;1.45;;;0.85;;
19016;SDS011;9641;51.494;6.670;2022-09-02T15:11:33;1.55;;;0.80;;
19016;SDS011;9641;51.494;6.670;2022-09-02T15:14:02;0.65;;;0.65;;
19016;SDS011;9641;51.494;6.670;2022-09-02T15:16:29;0.80;;;0.80;;
19016;SDS011;9641;51.494;6.670;2022-09-02T15:18:58;0.88;;;0.85;;
19016;SDS011;9641;51.494;6.670;2022-09-02T15:21:24;3.38;;;1.08;;
19016;SDS011;9641;51.494;6.670;2022-09-02T15:23:51;2.15;;;0.70;;
19016;SDS011;9641;51.494;6.670;2022-09-02T15:26:18;1.45;;;1.00;;
19016;SDS011;9641;51.494;6.670;2022-09-02T15:28:45;1.20;;;1.05;;
19016;SDS011;9641;51.494;6.670;2022-09-02T15:31:13;0.90;;;0.68;;
19016;SDS011;9641;51.494;6.670;2022-09-02T15:33:40;0.85;;;0.60;;
19016;SDS011;9641;51.494;6.670;2022-09-02T15:36:09;0.75;;;0.70;;
19016;SDS011;9641;51.494;6.670;2022-09-02T15:38:38;3.97;;;1.00;;
19016;SDS011;9641;51.494;6.670;2022-09-02T15:41:10;1.10;;;1.00;;
19016;SDS011;9641;51.494;6.670;2022-09-02T15:43:38;1.30;;;1.02;;
19016;SDS011;9641;51.494;6.670;2022-09-02T15:46:15;0.60;;;0.60;;
19016;SDS011;9641;51.494;6.670;2022-09-02T15:48:46;1.30;;;0.82;;
19016;SDS011;9641;51.494;6.670;2022-09-02T15:51:16;3.60;;;0.88;;